Observation data for Anton on 11/19/2019      Previous  Date       Current Mesonet Observations  Soil Data  Daily Summary Page  Observations in Plain Language
KAOS 190600Z 27002KT 04/M03 A2999 RMK A01 T00391029  RH  062%=      5-min Rain = 0
KAOS 190605Z 27002KT 04/M03 A2999 RMK A01 T00391029  RH  062%=      5-min Rain = 0
KAOS 190610Z 29004KT 04/M03 A2999 RMK A01 T00401027  RH  062%=      5-min Rain = 0
KAOS 190615Z 30003KT 04/M03 A2999 RMK A01 T00431026  RH  061%=      5-min Rain = 0
KAOS 190620Z 30003KT 04/M03 A2999 RMK A01 T00421027  RH  061%=      5-min Rain = 0
KAOS 190625Z 30002KT 04/M03 A2999 RMK A01 T00381028  RH  062%=      5-min Rain = 0
KAOS 190630Z 30002KT 04/M03 A2999 RMK A01 T00351029  RH  063%=      5-min Rain = 0
KAOS 190635Z 31003KT 03/M03 A2999 RMK A01 T00341030  RH  064%=      5-min Rain = 0
KAOS 190640Z 31003KT 04/M03 A2999 RMK A01 T00351028  RH  064%=      5-min Rain = 0
KAOS 190645Z 31003KT 04/M03 A2999 RMK A01 T00371027  RH  063%=      5-min Rain = 0
KAOS 190650Z 30003KT 03/M03 A2999 RMK A01 T00341029  RH  064%=      5-min Rain = 0
KAOS 190655Z 30004KT 03/M03 A2999 RMK A01 T00321029  RH  065%=      5-min Rain = 0
KAOS 190700Z 29004KT 03/M03 A2999 RMK A01 T00311030  RH  065%=      5-min Rain = 0
KAOS 190705Z 28004KT 03/M03 A2999 RMK A01 T00301031  RH  065%=      5-min Rain = 0
KAOS 190710Z 28004KT 03/M03 A2999 RMK A01 T00291031  RH  065%=      5-min Rain = 0
KAOS 190715Z 29005KT 03/M03 A2999 RMK A01 T00311029  RH  065%=      5-min Rain = 0
KAOS 190720Z 29006KT 03/M03 A2999 RMK A01 T00321029  RH  065%=      5-min Rain = 0
KAOS 190725Z 28007KT 03/M03 A2999 RMK A01 T00321029  RH  065%=      5-min Rain = 0
KAOS 190730Z 28006KT 03/M03 A2999 RMK A01 T00311029  RH  065%=      5-min Rain = 0
KAOS 190735Z 29006KT 03/M03 A2999 RMK A01 T00321028  RH  065%=      5-min Rain = 0
KAOS 190740Z 29006KT 03/M03 A2999 RMK A01 T00321028  RH  065%=      5-min Rain = 0
KAOS 190745Z 29005KT 03/M03 A2999 RMK A01 T00321027  RH  066%=      5-min Rain = 0
KAOS 190750Z 30005KT 03/M03 A2999 RMK A01 T00321027  RH  065%=      5-min Rain = 0
KAOS 190755Z 30004KT 03/M03 A2999 RMK A01 T00291029  RH  066%=      5-min Rain = 0
KAOS 190800Z 29005KT 03/M03 A2999 RMK A01 T00251031  RH  067%=      5-min Rain = 0
KAOS 190805Z 29004KT 02/M03 A2999 RMK A01 T00241031  RH  067%=      5-min Rain = 0
KAOS 190810Z 28004KT 02/M03 A2999 RMK A01 T00241031  RH  067%=      5-min Rain = 0
KAOS 190815Z 28004KT 02/M03 A30 RMK A01 T00231032  RH  067%=      5-min Rain = 0
KAOS 190820Z 27004KT 02/M03 A30 RMK A01 T00221032  RH  068%=      5-min Rain = 0
KAOS 190825Z 27004KT 02/M03 A2999 RMK A01 T00211031  RH  069%=      5-min Rain = 0
KAOS 190830Z 27004KT 02/M03 A2999 RMK A01 T00221030  RH  069%=      5-min Rain = 0
KAOS 190835Z 28004KT 02/M03 A2999 RMK A01 T00241029  RH  068%=      5-min Rain = 0
KAOS 190840Z 27003KT 03/M03 A2999 RMK A01 T00261028  RH  068%=      5-min Rain = 0
KAOS 190845Z 27003KT 03/M03 A2999 RMK A01 T00281028  RH  067%=      5-min Rain = 0
KAOS 190850Z 27003KT 03/M03 A2999 RMK A01 T00281028  RH  067%=      5-min Rain = 0
KAOS 190855Z 27002KT 03/M03 A2999 RMK A01 T00271028  RH  067%=      5-min Rain = 0
KAOS 190900Z 25002KT 03/M03 A2999 RMK A01 T00251029  RH  068%=      5-min Rain = 0
KAOS 190905Z 26002KT 03/M03 A2999 RMK A01 T00251029  RH  068%=      5-min Rain = 0
KAOS 190910Z 28002KT 02/M03 A2999 RMK A01 T00231030  RH  068%=      5-min Rain = 0
KAOS 190915Z 29000KT 02/M03 A2999 RMK A01 T00221030  RH  069%=      5-min Rain = 0
KAOS 190920Z 02000KT 03/M03 A2998 RMK A01 T00251028  RH  068%=      5-min Rain = 0
KAOS 190925Z 07001KT 02/M03 A2998 RMK A01 T00241029  RH  069%=      5-min Rain = 0
KAOS 190930Z 29006G11KT 02/M03 A2999 RMK A01 T00241028  RH  069%=      5-min Rain = 0
KAOS 190935Z 28009KT 03/M02 A2999 RMK A01 T00341022  RH  067%=      5-min Rain = 0
KAOS 190940Z 27007KT 04/M02 A2999 RMK A01 T00371022  RH  066%=      5-min Rain = 0
KAOS 190945Z 27007KT 04/M02 A2999 RMK A01 T00371023  RH  066%=      5-min Rain = 0
KAOS 190950Z 26006KT 04/M02 A2999 RMK A01 T00361023  RH  066%=      5-min Rain = 0
KAOS 190955Z 26006KT 04/M02 A2999 RMK A01 T00351024  RH  066%=      5-min Rain = 0
KAOS 191000Z 26005KT 03/M03 A2999 RMK A01 T00311026  RH  067%=      5-min Rain = 0
KAOS 191005Z 25005KT 03/M03 A2999 RMK A01 T00301025  RH  067%=      5-min Rain = 0
KAOS 191010Z 26004KT 03/M03 A2999 RMK A01 T00291025  RH  068%=      5-min Rain = 0
KAOS 191015Z 26006KT 03/M02 A2999 RMK A01 T00301023  RH  068%=      5-min Rain = 0
KAOS 191020Z 26006KT 03/M02 A2999 RMK A01 T00321022  RH  068%=      5-min Rain = 0
KAOS 191025Z 27005KT 03/M02 A2999 RMK A01 T00331022  RH  068%=      5-min Rain = 0
KAOS 191030Z 27004KT 03/M02 A2999 RMK A01 T00331020  RH  069%=      5-min Rain = 0
KAOS 191035Z 28004KT 03/M02 A2998 RMK A01 T00341018  RH  069%=      5-min Rain = 0
KAOS 191040Z 29004KT 04/M02 A2998 RMK A01 T00361018  RH  069%=      5-min Rain = 0
KAOS 191045Z 30004KT 03/M02 A2998 RMK A01 T00341020  RH  068%=      5-min Rain = 0
KAOS 191050Z 30003KT 03/M02 A2998 RMK A01 T00281023  RH  069%=      5-min Rain = 0
KAOS 191055Z 30003KT 02/M03 A2998 RMK A01 T00241025  RH  070%=      5-min Rain = 0
KAOS 191100Z 31003KT 02/M03 A2998 RMK A01 T00221025  RH  072%=      5-min Rain = 0
KAOS 191105Z 32003KT 02/M03 A2998 RMK A01 T00191028  RH  072%=      5-min Rain = 0
KAOS 191110Z 32003KT 02/M03 A2998 RMK A01 T00161029  RH  072%=      5-min Rain = 0
KAOS 191115Z 32003KT 01/M03 A2998 RMK A01 T00141030  RH  073%=      5-min Rain = 0
KAOS 191120Z 33003KT 01/M03 A2997 RMK A01 T00141029  RH  074%=      5-min Rain = 0
KAOS 191125Z 34002KT 02/M03 A2997 RMK A01 T00151028  RH  074%=      5-min Rain = 0
KAOS 191130Z 34002KT 01/M03 A2997 RMK A01 T00131030  RH  073%=      5-min Rain = 0
KAOS 191135Z 32003KT 01/M03 A2997 RMK A01 T00131028  RH  075%=      5-min Rain = 0
KAOS 191140Z 33003KT 01/M03 A2997 RMK A01 T00141028  RH  074%=      5-min Rain = 0
KAOS 191145Z 33003KT 01/M03 A2997 RMK A01 T00121030  RH  074%=      5-min Rain = 0
KAOS 191150Z 33003KT 01/M03 A2997 RMK A01 T00101031  RH  075%=      5-min Rain = 0
KAOS 191155Z 36005KT 01/M03 A2997 RMK A01 T00111029  RH  075%=      5-min Rain = 0
KAOS 191200Z 01005KT 01/M03 A2996 RMK A01 T00131028  RH  075%=      5-min Rain = 0
KAOS 191205Z 01002KT 01/M03 A2997 RMK A01 T00141027  RH  074%=      5-min Rain = 0
KAOS 191210Z 33003KT 01/M03 A2997 RMK A01 T00141028  RH  074%=      5-min Rain = 0
KAOS 191215Z 35004KT 01/M03 A2997 RMK A01 T00141026  RH  075%=      5-min Rain = 0
KAOS 191220Z 00005KT 02/M03 A2996 RMK A01 T00201025  RH  073%=      5-min Rain = 0
KAOS 191225Z 01004KT 02/M03 A2996 RMK A01 T00161029  RH  073%=      5-min Rain = 0
KAOS 191230Z 01002KT 01/M03 A2996 RMK A01 T00131030  RH  074%=      5-min Rain = 0
KAOS 191235Z 33002KT 01/M03 A2996 RMK A01 T00091032  RH  075%=      5-min Rain = 0
KAOS 191240Z 30003KT 01/M03 A2997 RMK A01 T00081030  RH  076%=      5-min Rain = 0
KAOS 191245Z 28004KT 01/M03 A2997 RMK A01 T00131027  RH  075%=      5-min Rain = 0
KAOS 191250Z 27005KT 01/M03 A2997 RMK A01 T00121028  RH  075%=      5-min Rain = 0
KAOS 191255Z 28005KT 01/M03 A2997 RMK A01 T00111027  RH  076%=      5-min Rain = 0
KAOS 191300Z 27005KT 01/M03 A2997 RMK A01 T00101028  RH  076%=      5-min Rain = 0
KAOS 191305Z 28005KT 01/M03 A2997 RMK A01 T00081028  RH  077%=      5-min Rain = 0
KAOS 191310Z 28006KT 01/M03 A2997 RMK A01 T00061029  RH  078%=      5-min Rain = 0
KAOS 191315Z 29005KT 01/M03 A2997 RMK A01 T00071029  RH  077%=      5-min Rain = 0
KAOS 191320Z 29005KT 01/M03 A2997 RMK A01 T00071030  RH  077%=      5-min Rain = 0
KAOS 191325Z 30004KT 01/M03 A2997 RMK A01 T00071029  RH  078%=      5-min Rain = 0
KAOS 191330Z 29004KT 01/M03 A2997 RMK A01 T00061030  RH  077%=      5-min Rain = 0
KAOS 191335Z 29004KT 01/M03 A2997 RMK A01 T00061030  RH  077%=      5-min Rain = 0
KAOS 191340Z 30003KT 01/M03 A2997 RMK A01 T00081029  RH  077%=      5-min Rain = 0
KAOS 191345Z 33003KT 01/M03 A2997 RMK A01 T00081030  RH  076%=      5-min Rain = 0
KAOS 191350Z 35003KT 01/M03 A2997 RMK A01 T00081029  RH  077%=      5-min Rain = 0
KAOS 191355Z 36004KT 01/M03 A2997 RMK A01 T00111028  RH  076%=      5-min Rain = 0
KAOS 191400Z 01003KT 02/M03 A2997 RMK A01 T00161026  RH  074%=      5-min Rain = 0
KAOS 191405Z 00001KT 02/M02 A2997 RMK A01 T00231023  RH  073%=      5-min Rain = 0
KAOS 191410Z 00001KT 03/M02 A2997 RMK A01 T00251024  RH  071%=      5-min Rain = 0
KAOS 191415Z 33001KT 03/M02 A2997 RMK A01 T00261022  RH  071%=      5-min Rain = 0
KAOS 191420Z 33002KT 03/M02 A2997 RMK A01 T00311018  RH  071%=      5-min Rain = 0
KAOS 191425Z 31002KT 04/M02 A2997 RMK A01 T00381016  RH  068%=      5-min Rain = 0
KAOS 191430Z 32001KT 05/M01 A2997 RMK A01 T00471012  RH  066%=      5-min Rain = 0
KAOS 191435Z 29002KT 05/M01 A2997 RMK A01 T00541010  RH  064%=      5-min Rain = 0
KAOS 191440Z 27002KT 06/M01 A2997 RMK A01 T00601009  RH  062%=      5-min Rain = 0
KAOS 191445Z 28001KT 07/M01 A2997 RMK A01 T00671005  RH  061%=      5-min Rain = 0
KAOS 191450Z 27001KT 07/M00 A2997 RMK A01 T00701003  RH  060%=      5-min Rain = 0
KAOS 191455Z 00000KT 08/00 A2997 RMK A01 T00810002  RH  058%=      5-min Rain = 0
KAOS 191500Z 27001KT 09/00 A2997 RMK A01 T00910001  RH  054%=      5-min Rain = 0
KAOS 191505Z 29004KT 09/00 A2997 RMK A01 T00860000  RH  056%=      5-min Rain = 0
KAOS 191510Z 28004KT 09/M00 A2997 RMK A01 T00851001  RH  055%=      5-min Rain = 0
KAOS 191515Z 28004KT 09/00 A2997 RMK A01 T00890001  RH  055%=      5-min Rain = 0
KAOS 191520Z 28006KT 09/00 A2998 RMK A01 T00920001  RH  054%=      5-min Rain = 0
KAOS 191525Z 27005KT 10/00 A2998 RMK A01 T00960004  RH  053%=      5-min Rain = 0
KAOS 191530Z 27003KT 10/00 A2998 RMK A01 T01020003  RH  051%=      5-min Rain = 0
KAOS 191535Z 26003KT 11/00 A2998 RMK A01 T01080001  RH  048%=      5-min Rain = 0
KAOS 191540Z 24002KT 12/00 A2998 RMK A01 T01150003  RH  046%=      5-min Rain = 0
KAOS 191545Z 23003KT 12/00 A2998 RMK A01 T01220003  RH  045%=      5-min Rain = 0
KAOS 191550Z 20002KT 13/01 A2998 RMK A01 T01290006  RH  043%=      5-min Rain = 0
KAOS 191555Z 23003KT 14/01 A2998 RMK A01 T01360006  RH  042%=      5-min Rain = 0
KAOS 191600Z 18003KT 14/01 A2997 RMK A01 T01410008  RH  041%=      5-min Rain = 0
KAOS 191605Z 17004KT 15/01 A2997 RMK A01 T01510007  RH  038%=      5-min Rain = 0
KAOS 191610Z 16005KT 16/01 A2997 RMK A01 T01560005  RH  036%=      5-min Rain = 0
KAOS 191615Z 16005KT 16/01 A2997 RMK A01 T01590008  RH  036%=      5-min Rain = 0
KAOS 191620Z 15005KT 17/01 A2997 RMK A01 T01650009  RH  035%=      5-min Rain = 0
KAOS 191625Z 16006KT 17/01 A2996 RMK A01 T01710012  RH  035%=      5-min Rain = 0
KAOS 191630Z 16007KT 18/01 A2996 RMK A01 T01750009  RH  033%=      5-min Rain = 0
KAOS 191635Z 16008KT 18/01 A2996 RMK A01 T01780006  RH  032%=      5-min Rain = 0
KAOS 191640Z 16007KT 18/01 A2996 RMK A01 T01810009  RH  032%=      5-min Rain = 0
KAOS 191645Z 16008KT 19/01 A2996 RMK A01 T01850009  RH  031%=      5-min Rain = 0
KAOS 191650Z 17008KT 19/01 A2996 RMK A01 T01870006  RH  030%=      5-min Rain = 0
KAOS 191655Z 17008KT 19/01 A2996 RMK A01 T01930007  RH  029%=      5-min Rain = 0
KAOS 191700Z 18010KT 20/00 A2996 RMK A01 T01950004  RH  028%=      5-min Rain = 0
KAOS 191705Z 18011KT 19/00 A2996 RMK A01 T01940001  RH  028%=      5-min Rain = 0
KAOS 191710Z 18011KT 20/00 A2995 RMK A01 T02000000  RH  027%=      5-min Rain = 0
KAOS 191715Z 17012KT 20/00 A2995 RMK A01 T020100-0  RH  026%=      5-min Rain = 0
KAOS 191720Z 18011KT 20/00 A2995 RMK A01 T020200-0  RH  026%=      5-min Rain = 0
KAOS 191725Z 17010KT 21/00 A2995 RMK A01 T02050002  RH  026%=      5-min Rain = 0
KAOS 191730Z 17011KT 20/00 A2994 RMK A01 T02040001  RH  026%=      5-min Rain = 0
KAOS 191735Z 18010KT 21/00 A2994 RMK A01 T02080003  RH  026%=      5-min Rain = 0
KAOS 191740Z 18011KT 21/00 A2994 RMK A01 T02090003  RH  026%=      5-min Rain = 0
KAOS 191745Z 17012KT 21/00 A2994 RMK A01 T02090003  RH  025%=      5-min Rain = 0
KAOS 191750Z 17010KT 21/01 A2993 RMK A01 T02110006  RH  026%=      5-min Rain = 0
KAOS 191755Z 18014KT 21/00 A2993 RMK A01 T02120001  RH  025%=      5-min Rain = 0
KAOS 191800Z 19013KT 22/00 A2992 RMK A01 T021600-0  RH  024%=      5-min Rain = 0
KAOS 191805Z 19013G18KT 22/M00 A2992 RMK A01 T02171001  RH  024%=      5-min Rain = 0
KAOS 191810Z 18014KT 22/M00 A2992 RMK A01 T02161002  RH  024%=      5-min Rain = 0
KAOS 191815Z 18015KT 22/M00 A2992 RMK A01 T02171003  RH  023%=      5-min Rain = 0
KAOS 191820Z 18016G21KT 22/M01 A2992 RMK A01 T02191006  RH  023%=      5-min Rain = 0
KAOS 191825Z 18016KT 22/M01 A2991 RMK A01 T02201006  RH  022%=      5-min Rain = 0
KAOS 191830Z 18014KT 22/M00 A2991 RMK A01 T02161003  RH  023%=      5-min Rain = 0
KAOS 191835Z 18013G18KT 22/00 A2991 RMK A01 T021900-0  RH  024%=      5-min Rain = 0
KAOS 191840Z 19014G19KT 22/M00 A2991 RMK A01 T02231001  RH  023%=      5-min Rain = 0
KAOS 191845Z 19016G22KT 23/M01 A299 RMK A01 T02271005  RH  022%=      5-min Rain = 0
KAOS 191850Z 19016KT 22/M01 A299 RMK A01 T02201012  RH  021%=      5-min Rain = 0
KAOS 191855Z 19016KT 22/M01 A299 RMK A01 T02181012  RH  022%=      5-min Rain = 0
KAOS 191900Z 18016G21KT 23/M01 A2989 RMK A01 T02251011  RH  021%=      5-min Rain = 0
KAOS 191905Z 19017KT 23/M01 A2989 RMK A01 T02311013  RH  020%=      5-min Rain = 0
KAOS 191910Z 18018KT 24/M02 A2989 RMK A01 T02351015  RH  019%=      5-min Rain = 0
KAOS 191915Z 18016G22KT 24/M02 A2989 RMK A01 T02381015  RH  019%=      5-min Rain = 0
KAOS 191920Z 18017G22KT 24/M02 A2988 RMK A01 T02381017  RH  018%=      5-min Rain = 0
KAOS 191925Z 19015KT 24/M02 A2988 RMK A01 T02411016  RH  018%=      5-min Rain = 0
KAOS 191930Z 18018G24KT 24/M02 A2988 RMK A01 T02411017  RH  018%=      5-min Rain = 0
KAOS 191935Z 19017G22KT 24/M02 A2987 RMK A01 T02401017  RH  018%=      5-min Rain = 0
KAOS 191940Z 18018KT 24/M02 A2987 RMK A01 T02421019  RH  018%=      5-min Rain = 0
KAOS 191945Z 18017G23KT 24/M02 A2987 RMK A01 T02421018  RH  018%=      5-min Rain = 0
KAOS 191950Z 19015G23KT 25/M02 A2986 RMK A01 T02461019  RH  017%=      5-min Rain = 0
KAOS 191955Z 19017G22KT 24/M02 A2986 RMK A01 T02431018  RH  018%=      5-min Rain = 0
KAOS 192000Z 19017G23KT 25/M02 A2985 RMK A01 T02451018  RH  018%=      5-min Rain = 0
KAOS 192005Z 19018G24KT 24/M02 A2985 RMK A01 T02421019  RH  018%=      5-min Rain = 0
KAOS 192010Z 18016G21KT 24/M02 A2985 RMK A01 T02411018  RH  018%=      5-min Rain = 0
KAOS 192015Z 19015G20KT 24/M02 A2985 RMK A01 T02401017  RH  018%=      5-min Rain = 0
KAOS 192020Z 18015G20KT 24/M02 A2984 RMK A01 T02421015  RH  018%=      5-min Rain = 0
KAOS 192025Z 19015G21KT 25/M02 A2984 RMK A01 T02451017  RH  018%=      5-min Rain = 0
KAOS 192030Z 20014KT 25/M01 A2984 RMK A01 T02471014  RH  018%=      5-min Rain = 0
KAOS 192035Z 19016G22KT 25/M02 A2984 RMK A01 T02501016  RH  017%=      5-min Rain = 0
KAOS 192040Z 18017G22KT 25/M02 A2983 RMK A01 T02501017  RH  017%=      5-min Rain = 0
KAOS 192045Z 18015KT 25/M02 A2983 RMK A01 T02511016  RH  017%=      5-min Rain = 0
KAOS 192050Z 19016KT 25/M02 A2983 RMK A01 T02521017  RH  017%=      5-min Rain = 0
KAOS 192055Z 18016G22KT 25/M02 A2983 RMK A01 T02511019  RH  017%=      5-min Rain = 0
KAOS 192100Z 19017G22KT 25/M02 A2983 RMK A01 T02501021  RH  017%=      5-min Rain = 0
KAOS 192105Z 20015KT 25/M02 A2983 RMK A01 T02521022  RH  016%=      5-min Rain = 0
KAOS 192110Z 19014KT 25/M02 A2983 RMK A01 T02511020  RH  017%=      5-min Rain = 0
KAOS 192115Z 19014KT 25/M02 A2982 RMK A01 T02491019  RH  017%=      5-min Rain = 0
KAOS 192120Z 18014KT 25/M02 A2982 RMK A01 T02491018  RH  017%=      5-min Rain = 0
KAOS 192125Z 18015G20KT 25/M02 A2982 RMK A01 T02521020  RH  017%=      5-min Rain = 0
KAOS 192130Z 19016KT 25/M02 A2982 RMK A01 T02541022  RH  016%=      5-min Rain = 0
KAOS 192135Z 19016G22KT 26/M02 A2982 RMK A01 T02551022  RH  016%=      5-min Rain = 0
KAOS 192140Z 18016KT 25/M02 A2982 RMK A01 T02541024  RH  016%=      5-min Rain = 0
KAOS 192145Z 18015KT 25/M02 A2982 RMK A01 T02541024  RH  016%=      5-min Rain = 0
KAOS 192150Z 19014KT 25/M02 A2982 RMK A01 T02531023  RH  016%=      5-min Rain = 0
KAOS 192155Z 18014KT 25/M03 A2982 RMK A01 T02511026  RH  016%=      5-min Rain = 0
KAOS 192200Z 18013G18KT 25/M02 A2981 RMK A01 T02511024  RH  016%=      5-min Rain = 0
KAOS 192205Z 18014KT 25/M02 A2981 RMK A01 T02511023  RH  016%=      5-min Rain = 0
KAOS 192210Z 18014G20KT 25/M02 A2981 RMK A01 T02501023  RH  016%=      5-min Rain = 0
KAOS 192215Z 18015G20KT 25/M03 A2981 RMK A01 T02481027  RH  016%=      5-min Rain = 0
KAOS 192220Z 18013G20KT 25/M03 A2981 RMK A01 T02491026  RH  016%=      5-min Rain = 0
KAOS 192225Z 18016KT 25/M03 A2981 RMK A01 T02491028  RH  016%=      5-min Rain = 0
KAOS 192230Z 19016KT 25/M03 A2981 RMK A01 T02461030  RH  016%=      5-min Rain = 0
KAOS 192235Z 19011KT 25/M03 A2981 RMK A01 T02471027  RH  016%=      5-min Rain = 0
KAOS 192240Z 19011G17KT 24/M03 A2981 RMK A01 T02431027  RH  017%=      5-min Rain = 0
KAOS 192245Z 19011KT 24/M03 A2981 RMK A01 T02421027  RH  017%=      5-min Rain = 0
KAOS 192250Z 18011KT 24/M03 A2981 RMK A01 T02381026  RH  017%=      5-min Rain = 0
KAOS 192255Z 18011KT 23/M02 A2981 RMK A01 T02321024  RH  018%=      5-min Rain = 0
KAOS 192300Z 18010KT 23/M02 A2981 RMK A01 T02291023  RH  019%=      5-min Rain = 0
KAOS 192305Z 18013KT 23/M02 A2981 RMK A01 T02301023  RH  019%=      5-min Rain = 0
KAOS 192310Z 18012KT 23/M02 A2981 RMK A01 T02251022  RH  019%=      5-min Rain = 0
KAOS 192315Z 18012KT 22/M02 A2981 RMK A01 T02221020  RH  020%=      5-min Rain = 0
KAOS 192320Z 18012KT 22/M02 A2981 RMK A01 T02181020  RH  020%=      5-min Rain = 0
KAOS 192325Z 18012KT 21/M02 A2981 RMK A01 T02131021  RH  021%=      5-min Rain = 0
KAOS 192330Z 18011KT 21/M02 A2981 RMK A01 T02091021  RH  021%=      5-min Rain = 0
KAOS 192335Z 18010KT 20/M02 A2982 RMK A01 T02041021  RH  022%=      5-min Rain = 0
KAOS 192340Z 18010KT 20/M02 A2982 RMK A01 T02001021  RH  023%=      5-min Rain = 0
KAOS 192345Z 18009KT 19/M02 A2982 RMK A01 T01941021  RH  023%=      5-min Rain = 0
KAOS 192350Z 18009KT 19/M02 A2982 RMK A01 T01881022  RH  024%=      5-min Rain = 0
KAOS 192355Z 18009KT 18/M02 A2982 RMK A01 T01821022  RH  025%=      5-min Rain = 0
KAOS 200000Z 18009KT 18/M02 A2982 RMK A01 T01771022  RH  026%=      5-min Rain = 0
KAOS 200005Z 18009KT 17/M02 A2982 RMK A01 T01731022  RH  026%=      5-min Rain = 0
KAOS 200010Z 17008KT 17/M02 A2982 RMK A01 T01661023  RH  028%=      5-min Rain = 0
KAOS 200015Z 17008KT 16/M02 A2982 RMK A01 T01611023  RH  028%=      5-min Rain = 0
KAOS 200020Z 17008KT 15/M02 A2982 RMK A01 T01501024  RH  030%=      5-min Rain = 0
KAOS 200025Z 17008KT 14/M03 A2982 RMK A01 T01441025  RH  031%=      5-min Rain = 0
KAOS 200030Z 17008KT 14/M02 A2982 RMK A01 T01411024  RH  032%=      5-min Rain = 0
KAOS 200035Z 17007KT 14/M03 A2982 RMK A01 T01371025  RH  033%=      5-min Rain = 0
KAOS 200040Z 17007KT 14/M02 A2982 RMK A01 T01351024  RH  033%=      5-min Rain = 0
KAOS 200045Z 16006KT 13/M02 A2982 RMK A01 T01341024  RH  034%=      5-min Rain = 0
KAOS 200050Z 16006KT 13/M02 A2982 RMK A01 T01311023  RH  034%=      5-min Rain = 0
KAOS 200055Z 16007KT 13/M02 A2982 RMK A01 T01291021  RH  035%=      5-min Rain = 0
KAOS 200100Z 16006KT 13/M02 A2982 RMK A01 T01301021  RH  035%=      5-min Rain = 0
KAOS 200105Z 17006KT 13/M02 A2982 RMK A01 T01301021  RH  035%=      5-min Rain = 0
KAOS 200110Z 17007KT 13/M02 A2982 RMK A01 T01271022  RH  036%=      5-min Rain = 0
KAOS 200115Z 17008KT 12/M02 A2983 RMK A01 T01181022  RH  038%=      5-min Rain = 0
KAOS 200120Z 17008KT 11/M02 A2983 RMK A01 T01141021  RH  039%=      5-min Rain = 0
KAOS 200125Z 17007KT 11/M02 A2983 RMK A01 T01141020  RH  040%=      5-min Rain = 0
KAOS 200130Z 17006KT 11/M02 A2983 RMK A01 T01131019  RH  040%=      5-min Rain = 0
KAOS 200135Z 17006KT 11/M02 A2983 RMK A01 T01131019  RH  040%=      5-min Rain = 0
KAOS 200140Z 17005KT 11/M02 A2983 RMK A01 T01121019  RH  040%=      5-min Rain = 0
KAOS 200145Z 16005KT 11/M02 A2983 RMK A01 T01101020  RH  041%=      5-min Rain = 0
KAOS 200150Z 17005KT 11/M02 A2983 RMK A01 T01091019  RH  041%=      5-min Rain = 0
KAOS 200155Z 16005KT 11/M02 A2983 RMK A01 T01101018  RH  041%=      5-min Rain = 0
KAOS 200200Z 16005KT 11/M02 A2983 RMK A01 T01131017  RH  041%=      5-min Rain = 0
KAOS 200205Z 15004KT 11/M02 A2983 RMK A01 T01111016  RH  042%=      5-min Rain = 0
KAOS 200210Z 16004KT 11/M01 A2983 RMK A01 T01091014  RH  043%=      5-min Rain = 0
KAOS 200215Z 16005KT 11/M02 A2983 RMK A01 T01091015  RH  042%=      5-min Rain = 0
KAOS 200220Z 17004KT 11/M02 A2983 RMK A01 T01071015  RH  043%=      5-min Rain = 0
KAOS 200225Z 17006KT 11/M02 A2983 RMK A01 T01091015  RH  043%=      5-min Rain = 0
KAOS 200230Z 17006KT 11/M01 A2983 RMK A01 T01111014  RH  042%=      5-min Rain = 0
KAOS 200235Z 16005KT 11/M01 A2983 RMK A01 T01121014  RH  042%=      5-min Rain = 0
KAOS 200240Z 15004KT 11/M01 A2983 RMK A01 T01081013  RH  043%=      5-min Rain = 0
KAOS 200245Z 15004KT 11/M01 A2983 RMK A01 T01071012  RH  044%=      5-min Rain = 0
KAOS 200250Z 15004KT 11/M01 A2983 RMK A01 T01091012  RH  044%=      5-min Rain = 0
KAOS 200255Z 15005KT 11/M01 A2983 RMK A01 T01101011  RH  044%=      5-min Rain = 0
KAOS 200300Z 15005KT 11/M01 A2983 RMK A01 T01091010  RH  044%=      5-min Rain = 0
KAOS 200305Z 15004KT 11/M01 A2983 RMK A01 T01071010  RH  045%=      5-min Rain = 0
KAOS 200310Z 16004KT 11/M01 A2983 RMK A01 T01071009  RH  045%=      5-min Rain = 0
KAOS 200315Z 16005KT 11/M01 A2983 RMK A01 T01091008  RH  045%=      5-min Rain = 0
KAOS 200320Z 16005KT 11/M01 A2983 RMK A01 T01051008  RH  046%=      5-min Rain = 0
KAOS 200325Z 16005KT 10/M01 A2983 RMK A01 T01031008  RH  047%=      5-min Rain = 0
KAOS 200330Z 16004KT 10/M01 A2983 RMK A01 T01041007  RH  046%=      5-min Rain = 0
KAOS 200335Z 16004KT 11/M01 A2983 RMK A01 T01051007  RH  046%=      5-min Rain = 0
KAOS 200340Z 17003KT 11/M01 A2983 RMK A01 T01051007  RH  046%=      5-min Rain = 0
KAOS 200345Z 18002KT 11/M01 A2983 RMK A01 T01051008  RH  046%=      5-min Rain = 0
KAOS 200350Z 18003KT 10/M01 A2983 RMK A01 T01041008  RH  046%=      5-min Rain = 0
KAOS 200355Z 18003KT 11/M01 A2983 RMK A01 T01061009  RH  045%=      5-min Rain = 0
KAOS 200400Z 17004KT 11/M01 A2983 RMK A01 T01071010  RH  045%=      5-min Rain = 0
KAOS 200405Z 16004KT 11/M01 A2983 RMK A01 T01061011  RH  045%=      5-min Rain = 0
KAOS 200410Z 17004KT 10/M01 A2983 RMK A01 T01011010  RH  046%=      5-min Rain = 0
KAOS 200415Z 16005KT 10/M01 A2983 RMK A01 T00961010  RH  048%=      5-min Rain = 0
KAOS 200420Z 17005KT 09/M01 A2983 RMK A01 T00921010  RH  049%=      5-min Rain = 0
KAOS 200425Z 18006KT 10/M01 A2983 RMK A01 T00991007  RH  048%=      5-min Rain = 0
KAOS 200430Z 18006KT 10/M01 A2983 RMK A01 T01011006  RH  048%=      5-min Rain = 0
KAOS 200435Z 19007KT 10/M01 A2983 RMK A01 T01001006  RH  048%=      5-min Rain = 0
KAOS 200440Z 18007KT 10/M00 A2983 RMK A01 T01031004  RH  048%=      5-min Rain = 0
KAOS 200445Z 18008KT 11/M00 A2983 RMK A01 T01071002  RH  047%=      5-min Rain = 0
KAOS 200450Z 18008KT 11/00 A2983 RMK A01 T01120001  RH  047%=      5-min Rain = 0
KAOS 200455Z 19009KT 12/01 A2983 RMK A01 T01170005  RH  047%=      5-min Rain = 0
KAOS 200500Z 19010KT 12/01 A2983 RMK A01 T01210009  RH  047%=      5-min Rain = 0
KAOS 200505Z 19010KT 12/01 A2983 RMK A01 T01240013  RH  047%=      5-min Rain = 0
KAOS 200510Z 19010KT 13/02 A2984 RMK A01 T01250016  RH  048%=      5-min Rain = 0
KAOS 200515Z 18011KT 13/02 A2984 RMK A01 T01270022  RH  049%=      5-min Rain = 0
KAOS 200520Z 18012KT 13/03 A2984 RMK A01 T01320028  RH  050%=      5-min Rain = 0
KAOS 200525Z 18012KT 14/03 A2983 RMK A01 T01350033  RH  051%=      5-min Rain = 0
KAOS 200530Z 18012KT 14/04 A2983 RMK A01 T01360035  RH  051%=      5-min Rain = 0
KAOS 200535Z 18011KT 14/04 A2983 RMK A01 T01360036  RH  052%=      5-min Rain = 0
KAOS 200540Z 18013KT 14/04 A2983 RMK A01 T01370038  RH  052%=      5-min Rain = 0
KAOS 200545Z 18013KT 14/04 A2983 RMK A01 T01370038  RH  052%=      5-min Rain = 0
KAOS 200550Z 18012KT 14/04 A2982 RMK A01 T01360038  RH  052%=      5-min Rain = 0
KAOS 200555Z 18012KT 14/04 A2982 RMK A01 T01360038  RH  053%=      5-min Rain = 0

Page generated in 0.0092 seconds.